Time;durP1;ratioP1;P1;durP2;ratioP2;P2;SDS_P1;SDS_P2;PMS_P1;PMS_P2;Temp;Humidity;BMP_temperature;BMP_pressure;BME280_temperature;BME280_humidity;BME280_pressure;Samples;Min_cycle;Max_cycle;Signal;HPM_P1;HPM_P2
2023/05/13 00:01:37;;;;;;;5.32;1.30;;;;;;;18.31;51.85;96477.97;5035432;28;20038;-33
2023/05/13 00:04:05;;;;;;;3.58;1.02;;;;;;;18.16;52.39;96482.75;5035286;28;20041;-31
2023/05/13 00:06:31;;;;;;;3.90;0.98;;;;;;;18.29;51.77;96472.22;5042776;28;20496;-30
2023/05/13 00:08:57;;;;;;;4.97;1.00;;;;;;;18.16;52.30;96471.00;5035335;28;20026;-31
2023/05/13 00:11:22;;;;;;;3.92;1.00;;;;;;;18.25;51.96;96477.13;5035111;28;20021;-30
2023/05/13 00:13:48;;;;;;;4.95;1.02;;;;;;;18.37;51.77;96485.53;5034865;28;20025;-30
2023/05/13 00:16:13;;;;;;;4.60;1.05;;;;;;;18.29;51.75;96483.19;5035394;28;20032;-32
2023/05/13 00:18:39;;;;;;;6.38;1.10;;;;;;;18.38;51.52;96485.06;5035130;28;20020;-30
2023/05/13 00:21:04;;;;;;;5.18;1.25;;;;;;;18.33;51.51;96484.97;5035231;28;20112;-30
2023/05/13 00:23:31;;;;;;;5.47;1.10;;;;;;;18.33;51.84;96487.72;5034712;28;20477;-31
2023/05/13 00:25:56;;;;;;;4.28;0.90;;;;;;;18.36;51.78;96473.81;5034648;28;20091;-30
2023/05/13 00:28:21;;;;;;;4.32;1.52;;;;;;;18.24;52.10;96467.38;5034617;28;20421;-30
2023/05/13 00:30:48;;;;;;;8.15;1.15;;;;;;;18.28;52.14;96465.22;5034559;28;20036;-30
2023/05/13 00:33:13;;;;;;;6.72;1.05;;;;;;;18.33;51.75;96472.00;5034560;28;20057;-31
2023/05/13 00:35:38;;;;;;;5.28;1.40;;;;;;;18.30;51.78;96470.97;5034394;28;20048;-30
2023/05/13 00:38:04;;;;;;;3.58;1.02;;;;;;;18.29;51.74;96461.25;5034272;28;20044;-30
2023/05/13 00:40:30;;;;;;;7.55;1.30;;;;;;;18.27;52.02;96458.22;5034577;28;20030;-30
2023/05/13 00:42:55;;;;;;;3.08;0.88;;;;;;;18.36;51.75;96453.81;5041363;28;20039;-30
2023/05/13 00:45:21;;;;;;;4.60;1.17;;;;;;;18.25;52.16;96455.19;5034562;28;20017;-31
2023/05/13 00:47:46;;;;;;;4.18;0.90;;;;;;;18.17;51.99;96451.31;5034353;28;20393;-30
2023/05/13 00:50:13;;;;;;;5.10;0.93;;;;;;;18.00;52.38;96450.28;5034434;28;20100;-30
2023/05/13 00:52:40;;;;;;;3.55;0.93;;;;;;;18.29;52.00;96455.75;5034495;28;20030;-30
2023/05/13 00:55:07;;;;;;;2.08;0.98;;;;;;;18.19;52.10;96457.06;5034300;28;20029;-30
2023/05/13 00:57:35;;;;;;;3.60;0.90;;;;;;;18.25;51.98;96454.41;5034629;28;20415;-30
2023/05/13 01:00:01;;;;;;;8.77;1.30;;;;;;;18.45;51.65;96456.44;5046704;28;20028;-30
2023/05/13 01:02:26;;;;;;;3.60;0.90;;;;;;;18.11;52.37;96455.19;5047473;28;20576;-30
2023/05/13 01:05:13;;;;;;;2.75;0.68;;;;;;;18.04;52.34;96459.09;5040291;28;20025;-30
2023/05/13 01:07:50;;;;;;;7.07;1.38;;;;;;;18.19;52.12;96451.56;5041073;28;20477;-30
2023/05/13 01:10:31;;;;;;;4.25;1.10;;;;;;;18.13;52.24;96456.25;5033970;28;20029;-30
2023/05/13 01:13:02;;;;;;;4.68;0.98;;;;;;;18.21;52.47;96451.84;5033919;28;20481;-31
2023/05/13 01:15:29;;;;;;;3.45;0.93;;;;;;;18.09;52.58;96450.19;5042030;28;20029;-30
2023/05/13 01:18:19;;;;;;;5.57;0.77;;;;;;;17.93;52.99;96434.19;5034214;28;20017;-30
2023/05/13 01:20:45;;;;;;;3.92;0.98;;;;;;;18.07;52.70;96438.91;5047290;28;20032;-32
2023/05/13 01:23:11;;;;;;;3.25;0.88;;;;;;;18.22;52.32;96431.41;5033726;28;20022;-30
2023/05/13 01:25:38;;;;;;;6.60;1.40;;;;;;;18.19;52.64;96423.38;5033667;28;20026;-30
2023/05/13 01:28:04;;;;;;;9.85;1.42;;;;;;;18.15;52.84;96418.09;5033877;28;20496;-30
2023/05/13 01:30:30;;;;;;;5.63;1.25;;;;;;;18.19;52.87;96418.63;5034132;28;20057;-30
2023/05/13 01:32:57;;;;;;;3.38;0.80;;;;;;;18.18;52.75;96422.63;5040941;28;20049;-30
2023/05/13 01:35:25;;;;;;;4.15;0.80;;;;;;;18.16;52.74;96421.59;5033632;28;20021;-32
2023/05/13 01:37:51;;;;;;;4.13;1.08;;;;;;;18.19;52.93;96413.16;5033695;28;20025;-30
2023/05/13 01:40:17;;;;;;;2.42;0.90;;;;;;;18.19;52.81;96415.91;5042915;28;20067;-30
2023/05/13 01:42:43;;;;;;;4.03;1.23;;;;;;;18.20;52.72;96408.41;5033499;28;20022;-30
2023/05/13 01:45:08;;;;;;;5.05;1.23;;;;;;;18.13;53.04;96409.59;5033700;28;20043;-30
2023/05/13 01:47:35;;;;;;;8.25;1.20;;;;;;;18.31;52.69;96414.06;5033472;28;20427;-31
2023/05/13 01:50:01;;;;;;;3.90;1.38;;;;;;;18.20;52.71;96403.69;5032742;28;20025;-30
2023/05/13 01:52:26;;;;;;;4.68;1.25;;;;;;;18.27;52.48;96405.28;5033309;28;20103;-31
2023/05/13 01:54:52;;;;;;;4.15;0.88;;;;;;;18.04;53.12;96401.47;5033045;28;20070;-30
2023/05/13 01:57:17;;;;;;;2.53;1.10;;;;;;;18.01;53.15;96405.16;5033558;28;20048;-30
2023/05/13 01:59:43;;;;;;;4.68;1.00;;;;;;;18.23;52.83;96405.47;5033284;28;20033;-32
2023/05/13 02:02:09;;;;;;;3.97;1.30;;;;;;;18.28;52.56;96402.06;5033112;28;20026;-30
2023/05/13 02:04:35;;;;;;;5.35;1.10;;;;;;;18.09;53.23;96403.53;5033183;28;20108;-30
2023/05/13 02:07:00;;;;;;;6.43;1.33;;;;;;;18.14;53.00;96399.34;5033216;28;20025;-31
2023/05/13 02:09:26;;;;;;;6.85;1.10;;;;;;;18.32;52.52;96404.59;5033216;28;20078;-30
2023/05/13 02:11:51;;;;;;;5.88;1.20;;;;;;;18.09;52.84;96400.03;5033355;28;20025;-30
2023/05/13 02:14:17;;;;;;;4.43;0.93;;;;;;;18.12;53.16;96391.59;5033192;28;20025;-31
2023/05/13 02:16:42;;;;;;;5.15;1.00;;;;;;;18.06;53.12;96398.22;5033654;28;20021;-30
2023/05/13 02:19:07;;;;;;;3.10;0.85;;;;;;;17.86;53.67;96396.19;5033003;28;20428;-30
2023/05/13 02:21:33;;;;;;;3.95;1.20;;;;;;;18.17;53.10;96390.19;5033190;28;20030;-31
2023/05/13 02:23:58;;;;;;;4.97;1.00;;;;;;;18.09;53.19;96392.53;5032861;28;20021;-30
2023/05/13 02:26:24;;;;;;;1.38;0.77;;;;;;;17.93;53.60;96401.28;5033328;28;20018;-30
2023/05/13 02:28:50;;;;;;;4.95;1.65;;;;;;;17.89;53.30;96392.50;5032350;28;20068;-31
2023/05/13 02:31:16;;;;;;;6.00;1.40;;;;;;;17.76;53.99;96398.28;5033089;28;20033;-30
2023/05/13 02:33:41;;;;;;;4.50;1.00;;;;;;;18.05;53.47;96405.69;5032698;28;20026;-30
2023/05/13 02:36:07;;;;;;;4.57;1.10;;;;;;;18.02;53.49;96411.41;5041434;28;20105;-30
2023/05/13 02:38:32;;;;;;;3.83;1.02;;;;;;;18.24;53.02;96404.25;5032961;28;20049;-31
2023/05/13 02:41:01;;;;;;;4.18;0.95;;;;;;;18.21;52.94;96413.44;5032848;28;20087;-30
2023/05/13 02:43:27;;;;;;;3.50;1.00;;;;;;;18.09;53.58;96411.75;5032887;28;20025;-31
2023/05/13 02:45:53;;;;;;;5.35;1.10;;;;;;;17.95;53.35;96413.28;5032651;28;20359;-30
2023/05/13 02:48:18;;;;;;;2.92;0.90;;;;;;;18.07;53.29;96418.94;5032781;28;20064;-30
2023/05/13 02:50:44;;;;;;;6.47;1.20;;;;;;;18.02;53.39;96416.88;5032734;28;20099;-31
2023/05/13 02:53:09;;;;;;;3.13;1.00;;;;;;;17.84;53.94;96417.84;5032685;28;20029;-30
2023/05/13 02:55:35;;;;;;;5.75;1.08;;;;;;;18.15;53.15;96422.81;5032912;28;20025;-30
2023/05/13 02:58:00;;;;;;;4.75;0.90;;;;;;;18.10;53.44;96413.28;5032781;28;20037;-34
2023/05/13 03:00:25;;;;;;;2.33;0.90;;;;;;;18.11;53.55;96409.28;5033278;28;20046;-30
2023/05/13 03:02:51;;;;;;;4.85;0.93;;;;;;;18.11;53.28;96409.28;5036781;28;20385;-30
2023/05/13 03:05:16;;;;;;;4.40;1.00;;;;;;;17.96;53.70;96408.56;5036557;28;20034;-30
2023/05/13 03:07:42;;;;;;;4.18;0.82;;;;;;;17.93;53.77;96420.47;5036729;28;20021;-30
2023/05/13 03:10:08;;;;;;;4.75;1.00;;;;;;;18.06;53.50;96415.44;5036176;28;20018;-30
2023/05/13 03:12:33;;;;;;;3.97;1.02;;;;;;;17.99;53.64;96404.88;5043685;28;20422;-31
2023/05/13 03:15:00;;;;;;;4.10;0.98;;;;;;;17.82;53.94;96406.59;5036178;28;20036;-30
2023/05/13 03:17:29;;;;;;;3.13;0.80;;;;;;;18.00;53.23;96405.63;5045169;28;20056;-30
2023/05/13 03:19:55;;;;;;;4.72;1.02;;;;;;;17.88;53.72;96405.47;5034943;28;20350;-30
2023/05/13 03:22:20;;;;;;;5.45;0.98;;;;;;;18.01;53.34;96405.16;5035717;28;20036;-31
2023/05/13 03:24:45;;;;;;;3.88;1.25;;;;;;;18.09;53.19;96405.50;5036051;28;20021;-31
2023/05/13 03:27:11;;;;;;;4.65;1.20;;;;;;;18.13;53.12;96408.81;5036234;28;20485;-31
2023/05/13 03:29:36;;;;;;;4.80;1.02;;;;;;;18.05;53.28;96397.47;5037670;28;20373;-30
2023/05/13 03:32:05;;;;;;;4.22;0.98;;;;;;;18.03;53.07;96393.72;5035988;28;20029;-31
2023/05/13 03:34:31;;;;;;;2.65;0.90;;;;;;;17.71;54.14;96398.19;5036104;28;20473;-31
2023/05/13 03:36:56;;;;;;;3.35;1.13;;;;;;;17.86;53.71;96396.19;5036012;28;20032;-30
2023/05/13 03:39:22;;;;;;;3.17;0.73;;;;;;;17.98;53.52;96399.84;5035863;28;20465;-30
2023/05/13 03:41:47;;;;;;;5.43;0.90;;;;;;;17.93;53.08;96396.53;5035619;28;20489;-30
2023/05/13 03:44:12;;;;;;;5.75;0.98;;;;;;;17.75;53.77;96396.00;5035662;28;20032;-30
2023/05/13 03:46:38;;;;;;;4.35;0.82;;;;;;;17.81;53.85;96386.63;5035565;28;20083;-30
2023/05/13 03:49:03;;;;;;;3.05;1.00;;;;;;;17.77;53.66;96397.06;5035603;28;20024;-30
2023/05/13 03:51:30;;;;;;;3.08;0.73;;;;;;;17.86;53.64;96402.44;5035722;28;20037;-30
2023/05/13 03:53:55;;;;;;;2.58;0.95;;;;;;;17.73;53.75;96390.25;5035582;28;20033;-30
2023/05/13 03:56:20;;;;;;;6.47;1.17;;;;;;;17.76;53.75;96387.31;5035460;28;20029;-30
2023/05/13 03:58:46;;;;;;;4.50;1.48;;;;;;;17.72;54.08;96389.47;5042487;28;20038;-31
2023/05/13 04:01:12;;;;;;;3.60;1.10;;;;;;;17.94;53.26;96386.31;5034079;28;20528;-31
2023/05/13 04:03:38;;;;;;;3.92;0.85;;;;;;;17.72;53.80;96396.94;5035390;28;20366;-31
2023/05/13 04:06:03;;;;;;;2.38;0.82;;;;;;;17.85;53.49;96400.91;5035310;28;20019;-30
2023/05/13 04:08:28;;;;;;;2.88;0.80;;;;;;;18.00;53.33;96409.13;5042211;28;20492;-31
2023/05/13 04:10:55;;;;;;;3.38;1.10;;;;;;;18.09;52.85;96409.00;5035360;28;20036;-30
2023/05/13 04:13:21;;;;;;;3.83;0.90;;;;;;;18.14;52.90;96411.09;5034733;28;20546;-30
2023/05/13 04:15:47;;;;;;;2.97;0.73;;;;;;;18.00;53.41;96406.38;5035500;28;20030;-31
2023/05/13 04:18:12;;;;;;;4.60;1.08;;;;;;;18.05;53.02;96405.69;5035180;28;20017;-30
2023/05/13 04:20:38;;;;;;;3.70;0.98;;;;;;;18.06;53.06;96403.72;5035087;28;20025;-32
2023/05/13 04:23:04;;;;;;;3.17;0.68;;;;;;;17.95;53.20;96399.56;5033687;28;20023;-30
2023/05/13 04:25:29;;;;;;;1.52;0.90;;;;;;;17.98;53.15;96411.59;5034990;28;20036;-32
2023/05/13 04:27:55;;;;;;;2.42;0.93;;;;;;;18.11;52.87;96412.03;5034698;28;20022;-30
2023/05/13 04:30:20;;;;;;;5.07;0.90;;;;;;;17.95;53.33;96410.53;5034714;28;20018;-32
2023/05/13 04:32:46;;;;;;;3.63;1.40;;;;;;;17.87;53.62;96412.16;5034787;28;20029;-30
2023/05/13 04:35:11;;;;;;;4.43;0.90;;;;;;;18.11;52.80;96411.28;5034708;28;20048;-30
2023/05/13 04:37:37;;;;;;;3.60;1.05;;;;;;;18.17;52.85;96406.66;5037666;28;20350;-30
2023/05/13 04:40:03;;;;;;;2.92;1.30;;;;;;;18.08;53.03;96417.72;5048375;28;20138;-29
2023/05/13 04:42:29;;;;;;;5.20;0.98;;;;;;;18.07;52.93;96416.97;5034648;28;20029;-32
2023/05/13 04:44:55;;;;;;;4.00;0.80;;;;;;;18.07;53.23;96414.22;5034333;28;20032;-32
2023/05/13 04:47:21;;;;;;;2.63;0.90;;;;;;;18.11;53.10;96412.03;5034674;28;20390;-30
2023/05/13 04:49:46;;;;;;;3.22;0.70;;;;;;;18.18;53.11;96428.09;5034368;28;20025;-30
2023/05/13 04:52:12;;;;;;;2.72;0.70;;;;;;;18.05;53.24;96427.66;5041820;28;20018;-30
2023/05/13 04:54:38;;;;;;;2.42;0.75;;;;;;;18.14;53.35;96424.06;5034365;28;20138;-30
2023/05/13 04:57:05;;;;;;;3.65;0.95;;;;;;;18.17;53.20;96423.88;5033772;28;20482;-31
2023/05/13 04:59:31;;;;;;;3.15;0.80;;;;;;;18.10;53.67;96431.72;5041234;28;20028;-31
2023/05/13 05:01:56;;;;;;;3.78;0.80;;;;;;;18.19;53.46;96434.34;5034288;28;20112;-30
2023/05/13 05:04:22;;;;;;;2.72;0.60;;;;;;;18.11;53.98;96434.00;5034538;28;20033;-30
2023/05/13 05:06:47;;;;;;;7.13;1.35;;;;;;;18.23;53.56;96432.94;5034255;28;20453;-30
2023/05/13 05:09:13;;;;;;;3.67;1.20;;;;;;;18.23;53.54;96434.91;5034419;28;20526;-30
2023/05/13 05:11:38;;;;;;;3.30;0.82;;;;;;;18.31;53.70;96441.53;5033946;28;20100;-30
2023/05/13 05:14:04;;;;;;;3.33;0.85;;;;;;;18.45;53.36;96434.47;5034071;28;20053;-31
2023/05/13 05:16:29;;;;;;;2.30;0.70;;;;;;;18.21;54.22;96437.38;5037027;28;20079;-30
2023/05/13 05:18:55;;;;;;;3.85;0.77;;;;;;;18.22;54.28;96439.66;5032994;28;20373;-30
2023/05/13 05:21:20;;;;;;;2.78;0.70;;;;;;;18.36;53.83;96440.09;5034118;28;20210;-30
2023/05/13 05:23:46;;;;;;;4.15;0.90;;;;;;;18.40;53.83;96435.94;5033014;28;20442;-30
2023/05/13 05:26:11;;;;;;;3.35;1.00;;;;;;;18.43;53.59;96436.94;5032227;28;20025;-33
2023/05/13 05:28:38;;;;;;;2.38;0.70;;;;;;;18.35;54.06;96444.84;5033477;28;20083;-31
2023/05/13 05:31:04;;;;;;;4.32;1.17;;;;;;;18.35;53.71;96438.59;5033574;28;20115;-30
2023/05/13 05:33:30;;;;;;;3.38;1.10;;;;;;;18.38;53.29;96432.91;5033692;28;20100;-30
2023/05/13 05:35:55;;;;;;;2.53;0.70;;;;;;;18.24;53.22;96439.94;5040139;28;20388;-30
2023/05/13 05:38:24;;;;;;;3.60;0.88;;;;;;;18.34;52.92;96453.53;5033757;28;20513;-32
2023/05/13 05:40:50;;;;;;;2.42;0.70;;;;;;;18.54;52.51;96448.09;5034169;28;20033;-31
2023/05/13 05:43:16;;;;;;;3.95;0.90;;;;;;;18.53;52.57;96446.59;5033519;28;20032;-32
2023/05/13 05:45:41;;;;;;;4.35;0.98;;;;;;;18.42;52.79;96441.69;5033512;28;20021;-31
2023/05/13 05:48:07;;;;;;;5.05;1.00;;;;;;;18.51;52.45;96451.81;5033779;28;20567;-30
2023/05/13 05:50:32;;;;;;;2.95;0.80;;;;;;;18.36;53.18;96448.34;5033352;28;20025;-30
2023/05/13 05:52:58;;;;;;;2.58;1.00;;;;;;;18.18;53.99;96447.31;5033533;28;20029;-31
2023/05/13 05:55:26;;;;;;;6.25;1.30;;;;;;;18.20;54.38;96444.84;5033264;28;20018;-31
2023/05/13 05:57:51;;;;;;;3.58;1.23;;;;;;;18.27;54.79;96449.22;5040095;28;20041;-30
2023/05/13 06:00:17;;;;;;;4.28;1.38;;;;;;;18.42;54.34;96452.66;5033191;28;20036;-30
2023/05/13 06:02:43;;;;;;;4.40;1.20;;;;;;;18.22;54.62;96452.63;5033558;28;20025;-30
2023/05/13 06:05:08;;;;;;;2.95;1.35;;;;;;;18.19;55.29;96456.31;5033329;28;20013;-29
2023/05/13 06:07:34;;;;;;;3.42;1.30;;;;;;;18.44;54.51;96457.69;5033170;28;20017;-30
2023/05/13 06:10:01;;;;;;;4.32;1.38;;;;;;;18.28;54.98;96462.47;5033209;28;20023;-30
2023/05/13 06:12:26;;;;;;;3.67;1.10;;;;;;;18.23;54.68;96471.38;5032874;28;20465;-31
2023/05/13 06:14:52;;;;;;;3.25;0.90;;;;;;;18.22;54.35;96471.84;5033010;28;20109;-30
2023/05/13 06:17:17;;;;;;;3.47;0.80;;;;;;;18.21;53.83;96465.59;5032964;28;20032;-30
2023/05/13 06:19:43;;;;;;;2.70;0.80;;;;;;;18.44;53.52;96463.94;5033120;28;20020;-32
2023/05/13 06:22:09;;;;;;;2.22;0.77;;;;;;;18.58;53.22;96457.66;5032787;28;20021;-30
2023/05/13 06:24:37;;;;;;;4.60;0.80;;;;;;;18.47;53.23;96459.47;5032838;28;20028;-29
2023/05/13 06:27:03;;;;;;;3.10;0.77;;;;;;;18.63;52.57;96454.25;5032878;28;20021;-29
2023/05/13 06:29:28;;;;;;;3.17;1.17;;;;;;;18.51;52.50;96449.06;5032953;28;20029;-29
2023/05/13 06:31:54;;;;;;;2.05;0.70;;;;;;;18.33;53.06;96455.53;5033415;28;20021;-30
2023/05/13 06:34:19;;;;;;;5.70;0.90;;;;;;;18.23;52.96;96454.13;5032776;28;20021;-30
2023/05/13 06:36:45;;;;;;;4.28;1.08;;;;;;;18.38;52.85;96452.13;5041667;28;20036;-30
2023/05/13 06:39:11;;;;;;;3.17;0.90;;;;;;;18.51;52.80;96449.81;5037322;28;20017;-29
2023/05/13 06:41:38;;;;;;;3.58;1.33;;;;;;;18.45;53.27;96446.22;5036973;28;20025;-29
2023/05/13 06:44:05;;;;;;;4.90;1.20;;;;;;;18.36;53.60;96456.56;5036650;28;20388;-30
2023/05/13 06:46:31;;;;;;;3.40;0.73;;;;;;;18.50;53.00;96450.28;5035486;28;20448;-29
2023/05/13 06:48:57;;;;;;;3.00;0.80;;;;;;;18.34;53.58;96457.03;5037012;28;20097;-30
2023/05/13 06:51:25;;;;;;;4.35;0.82;;;;;;;18.21;53.94;96453.84;5036972;28;20033;-32
2023/05/13 06:53:50;;;;;;;2.75;1.00;;;;;;;18.15;54.42;96450.28;5036462;28;20064;-28
2023/05/13 06:56:15;;;;;;;2.65;0.85;;;;;;;18.13;54.54;96461.72;5036565;28;20029;-31
2023/05/13 06:58:41;;;;;;;2.50;0.57;;;;;;;18.26;54.44;96453.19;5037133;28;20041;-30
2023/05/13 07:01:06;;;;;;;6.75;1.52;;;;;;;18.28;54.17;96461.72;5036237;28;20392;-29
2023/05/13 07:03:32;;;;;;;5.07;1.00;;;;;;;18.14;54.99;96449.53;5036596;28;20075;-29
2023/05/13 07:05:57;;;;;;;4.28;1.23;;;;;;;18.31;54.99;96445.03;5036394;28;20108;-30
2023/05/13 07:08:22;;;;;;;4.05;0.90;;;;;;;18.16;55.38;96458.03;5035008;28;20025;-30
2023/05/13 07:10:48;;;;;;;3.97;1.33;;;;;;;18.31;55.08;96458.00;5036253;28;20053;-30
2023/05/13 07:13:14;;;;;;;2.95;0.75;;;;;;;18.56;54.22;96448.34;5036279;28;20056;-30
2023/05/13 07:15:39;;;;;;;4.88;1.63;;;;;;;18.43;54.93;96454.19;5036437;28;20380;-32
2023/05/13 07:18:05;;;;;;;4.72;1.00;;;;;;;18.47;54.85;96448.50;5036372;28;20112;-30
2023/05/13 07:20:30;;;;;;;3.78;0.80;;;;;;;18.55;54.58;96441.34;5036464;28;20534;-29
2023/05/13 07:22:56;;;;;;;3.65;0.75;;;;;;;18.32;54.52;96429.31;5036307;28;20108;-30
2023/05/13 07:25:21;;;;;;;3.88;0.60;;;;;;;18.49;54.01;96437.78;5036355;28;20025;-31
2023/05/13 07:27:47;;;;;;;3.10;0.82;;;;;;;18.50;53.92;96440.06;5043698;28;20086;-30
2023/05/13 07:30:13;;;;;;;4.60;0.85;;;;;;;18.51;53.52;96449.06;5035794;28;20076;-29
2023/05/13 07:32:39;;;;;;;3.20;0.93;;;;;;;18.65;53.07;96437.31;5035799;28;20033;-30
2023/05/13 07:35:05;;;;;;;4.05;0.63;;;;;;;18.49;53.58;96444.03;5036070;28;20017;-30
2023/05/13 07:37:31;;;;;;;4.78;1.02;;;;;;;18.49;53.69;96440.53;5035578;28;20026;-32
2023/05/13 07:39:57;;;;;;;2.88;0.70;;;;;;;18.47;53.49;96438.25;5037304;28;20032;-29
2023/05/13 07:42:23;;;;;;;2.53;0.80;;;;;;;18.48;53.16;96431.53;5035644;28;20022;-29
2023/05/13 07:44:49;;;;;;;2.92;0.70;;;;;;;18.54;52.96;96424.16;5035714;28;20472;-29
2023/05/13 07:47:15;;;;;;;3.55;1.00;;;;;;;18.48;53.17;96431.53;5034654;28;20114;-29
2023/05/13 07:49:40;;;;;;;2.92;0.82;;;;;;;18.35;53.89;96436.59;5035597;28;20021;-29
2023/05/13 07:52:05;;;;;;;4.43;1.17;;;;;;;18.69;52.59;96440.56;5035340;28;20095;-30
2023/05/13 07:54:31;;;;;;;3.25;1.13;;;;;;;18.45;53.65;96454.47;5035713;28;20030;-29
2023/05/13 07:56:56;;;;;;;5.18;1.17;;;;;;;18.53;52.95;96457.59;5035120;28;20099;-30
2023/05/13 07:59:22;;;;;;;3.15;1.02;;;;;;;18.49;53.15;96462.50;5035820;28;20026;-32
2023/05/13 08:01:47;;;;;;;3.38;1.30;;;;;;;18.68;52.30;96458.28;5035442;28;20021;-29
2023/05/13 08:04:13;;;;;;;2.10;0.70;;;;;;;18.53;52.62;96446.59;5035481;28;20017;-31
2023/05/13 08:06:38;;;;;;;2.90;0.90;;;;;;;18.63;52.01;96454.25;5035415;28;20045;-29
2023/05/13 08:09:05;;;;;;;4.30;0.90;;;;;;;18.58;51.72;96448.69;5034143;28;20033;-30
2023/05/13 08:11:30;;;;;;;1.70;0.80;;;;;;;18.47;51.70;96464.97;5035289;28;20025;-31
2023/05/13 08:13:56;;;;;;;2.40;0.68;;;;;;;18.45;51.86;96459.94;5035398;28;20083;-30
2023/05/13 08:16:22;;;;;;;3.33;0.68;;;;;;;18.32;52.46;96465.00;5035031;28;20428;-29
2023/05/13 08:18:47;;;;;;;1.33;0.60;;;;;;;18.25;52.29;96466.16;5035011;28;20028;-30
2023/05/13 08:21:12;;;;;;;3.00;0.77;;;;;;;18.27;52.24;96463.69;5035120;28;20104;-29
2023/05/13 08:23:38;;;;;;;1.45;0.73;;;;;;;18.44;52.00;96465.91;5035042;28;20420;-30
2023/05/13 08:26:03;;;;;;;2.70;0.60;;;;;;;18.45;51.94;96456.44;5034844;28;20021;-29
2023/05/13 08:28:29;;;;;;;2.55;1.00;;;;;;;18.60;51.73;96451.69;5034614;28;20029;-30
2023/05/13 08:31:01;;;;;;;2.88;0.70;;;;;;;18.59;51.68;96455.69;5034710;28;20025;-29
2023/05/13 08:33:29;;;;;;;3.15;0.73;;;;;;;18.37;52.03;96458.84;5045610;28;20040;-29
2023/05/13 08:35:55;;;;;;;1.92;0.75;;;;;;;18.30;52.74;96451.75;5041216;28;20032;-30
2023/05/13 08:38:21;;;;;;;2.78;0.80;;;;;;;18.55;52.25;96455.84;5034695;28;20454;-30
2023/05/13 08:40:46;;;;;;;3.92;0.90;;;;;;;18.49;52.03;96452.28;5041564;28;20055;-30
2023/05/13 08:43:15;;;;;;;4.32;0.68;;;;;;;18.34;52.26;96448.81;5034897;28;20485;-30
2023/05/13 08:45:41;;;;;;;3.30;0.70;;;;;;;18.48;52.20;96439.03;5034559;28;20033;-30
2023/05/13 08:48:08;;;;;;;2.42;0.85;;;;;;;18.72;51.67;96436.88;5034334;28;20983;-29
2023/05/13 08:50:34;;;;;;;3.90;1.00;;;;;;;18.61;51.94;96439.47;5034695;28;20026;-30
2023/05/13 08:53:00;;;;;;;5.78;0.93;;;;;;;18.59;51.62;96444.69;5034619;28;20040;-32
2023/05/13 08:55:26;;;;;;;2.03;0.75;;;;;;;18.61;51.74;96447.72;5034307;28;20107;-30
2023/05/13 08:57:51;;;;;;;2.70;1.30;;;;;;;18.34;52.00;96457.03;5034673;28;20049;-29
2023/05/13 09:00:17;;;;;;;2.20;1.17;;;;;;;18.43;52.02;96453.41;5034007;28;20029;-29
2023/05/13 09:02:44;;;;;;;2.50;0.65;;;;;;;18.53;51.96;96447.34;5034143;28;20385;-29
2023/05/13 09:05:09;;;;;;;1.98;0.88;;;;;;;18.47;51.75;96438.25;5034164;28;20021;-30
2023/05/13 09:07:37;;;;;;;3.53;1.00;;;;;;;18.59;51.57;96441.94;5033997;28;20468;-29
2023/05/13 09:10:03;;;;;;;3.03;0.90;;;;;;;18.44;52.15;96452.94;5034158;28;20021;-30
2023/05/13 09:12:55;;;;;;;4.40;0.80;;;;;;;18.69;51.58;96443.31;5033953;28;20064;-29
2023/05/13 09:15:25;;;;;;;1.52;0.65;;;;;;;18.53;52.25;96441.09;5033331;28;20038;-29
2023/05/13 09:18:08;;;;;;;5.38;1.35;;;;;;;18.54;52.02;96437.13;5034193;28;20022;-30
2023/05/13 09:20:34;;;;;;;5.72;0.80;;;;;;;18.56;52.19;96435.38;5033763;28;20026;-29
2023/05/13 09:23:06;;;;;;;2.92;0.90;;;;;;;18.52;52.25;96434.09;5034008;28;20044;-30
2023/05/13 09:25:32;;;;;;;2.03;0.80;;;;;;;18.64;52.34;96449.53;5034337;28;20447;-29
2023/05/13 09:28:00;;;;;;;3.92;1.20;;;;;;;18.48;52.55;96456.25;5040634;28;20021;-30
2023/05/13 09:30:28;;;;;;;3.05;0.80;;;;;;;18.47;52.22;96473.22;5032361;28;20022;-29
2023/05/13 09:33:14;;;;;;;4.53;0.90;;;;;;;18.40;53.00;96476.34;5042276;28;20035;-31
2023/05/13 09:35:44;;;;;;;2.42;1.27;;;;;;;18.55;52.22;96477.81;5033567;28;20473;-31
2023/05/13 09:38:19;;;;;;;2.75;0.90;;;;;;;18.34;52.98;96472.75;5033793;28;20088;-29
2023/05/13 09:41:11;;;;;;;4.18;0.80;;;;;;;18.50;52.37;96475.75;5040513;28;20439;-30
2023/05/13 09:43:37;;;;;;;2.90;1.02;;;;;;;18.74;51.74;96467.38;5034341;28;20666;-29
2023/05/13 09:46:04;;;;;;;3.65;1.20;;;;;;;18.81;51.66;96469.72;5033314;28;20408;-30
2023/05/13 09:48:33;;;;;;;3.20;1.10;;;;;;;18.47;52.25;96468.47;5033436;28;20040;-31
2023/05/13 09:50:59;;;;;;;3.60;1.20;;;;;;;18.58;52.57;96465.16;5033279;28;20033;-30
2023/05/13 09:53:26;;;;;;;4.78;1.35;;;;;;;18.35;51.52;96468.78;5032500;28;20096;-29
2023/05/13 09:55:54;;;;;;;5.03;1.30;;;;;;;18.41;51.89;96466.88;5033350;28;20021;-30
2023/05/13 09:58:20;;;;;;;3.95;1.80;;;;;;;18.36;52.41;96464.81;5033462;28;20044;-30
2023/05/13 10:00:47;;;;;;;3.58;1.48;;;;;;;18.52;52.10;96462.31;5033422;28;20026;-31
2023/05/13 10:03:13;;;;;;;6.10;1.90;;;;;;;18.48;52.02;96450.75;5033273;28;20095;-29
2023/05/13 10:05:39;;;;;;;5.13;1.30;;;;;;;18.54;51.94;96448.88;5033138;28;20017;-29
2023/05/13 10:08:08;;;;;;;4.10;1.90;;;;;;;18.52;52.06;96442.34;5033320;28;20026;-30
2023/05/13 10:10:34;;;;;;;3.55;1.45;;;;;;;18.66;52.07;96436.06;5039942;28;20071;-29
2023/05/13 10:13:05;;;;;;;4.05;1.98;;;;;;;18.57;52.30;96425.91;5033296;28;20018;-30
2023/05/13 10:15:32;;;;;;;5.82;2.20;;;;;;;18.59;52.25;96418.00;5032996;28;20108;-30
2023/05/13 10:17:58;;;;;;;5.03;2.28;;;;;;;18.59;51.96;96418.00;5033415;28;20376;-30
2023/05/13 10:20:27;;;;;;;4.80;2.38;;;;;;;18.55;52.57;96427.63;5033236;28;20017;-29
2023/05/13 10:22:54;;;;;;;6.95;3.63;;;;;;;18.55;52.81;96422.13;5033184;28;20025;-31
2023/05/13 10:25:21;;;;;;;6.47;3.47;;;;;;;18.24;53.58;96425.44;5033091;28;20372;-30
2023/05/13 10:27:47;;;;;;;7.57;3.10;;;;;;;18.38;52.51;96421.16;5033031;28;20071;-29
2023/05/13 10:30:13;;;;;;;6.60;3.05;;;;;;;18.44;52.61;96421.97;5033287;28;20461;-29
2023/05/13 10:32:39;;;;;;;5.18;2.33;;;;;;;18.54;52.24;96415.16;5032497;28;20032;-30
2023/05/13 10:35:09;;;;;;;6.18;3.42;;;;;;;18.45;52.24;96409.75;5033069;28;20029;-30
2023/05/13 10:37:55;;;;;;;7.00;2.05;;;;;;;18.60;52.07;96410.50;5038643;28;20025;-29
2023/05/13 10:40:42;;;;;;;4.63;2.00;;;;;;;18.41;52.53;96411.97;5040253;28;20071;-29
2023/05/13 10:43:31;;;;;;;4.53;2.00;;;;;;;18.66;51.76;96422.34;5040009;28;20029;-30
2023/05/13 10:45:59;;;;;;;4.57;2.08;;;;;;;18.54;52.06;96415.91;5033057;28;20120;-30
2023/05/13 10:48:25;;;;;;;6.03;2.40;;;;;;;18.63;51.92;96409.56;5032855;28;20049;-30
2023/05/13 10:50:55;;;;;;;3.92;2.08;;;;;;;18.40;52.02;96407.72;5032424;28;20051;-30
2023/05/13 10:53:31;;;;;;;4.22;2.00;;;;;;;18.55;52.16;96408.41;5032765;28;20021;-29
2023/05/13 10:55:58;;;;;;;4.95;2.00;;;;;;;18.62;52.34;96405.28;5032597;28;20099;-30
2023/05/13 10:58:36;;;;;;;5.18;2.15;;;;;;;18.76;51.89;96400.97;5032640;28;20084;-30
2023/05/13 11:01:28;;;;;;;5.25;2.40;;;;;;;18.74;52.05;96389.69;5032790;28;20025;-29
2023/05/13 11:03:56;;;;;;;4.95;1.70;;;;;;;18.58;52.13;96385.50;5032892;28;20104;-30
2023/05/13 11:06:42;;;;;;;6.18;1.70;;;;;;;18.63;51.46;96390.31;5032861;28;20025;-29
2023/05/13 11:09:13;;;;;;;3.42;1.50;;;;;;;18.51;52.63;96391.38;5031330;28;20040;-30
2023/05/13 11:11:39;;;;;;;2.45;1.23;;;;;;;18.59;52.18;96389.75;5032676;28;20176;-29
2023/05/13 11:14:26;;;;;;;5.05;1.98;;;;;;;18.36;52.94;96387.94;5032591;28;20104;-29
2023/05/13 11:17:00;;;;;;;9.43;5.22;;;;;;;18.66;52.48;96392.13;5032700;28;20021;-31
2023/05/13 11:19:28;;;;;;;7.28;3.25;;;;;;;18.74;52.52;96387.72;5032386;28;20040;-30
2023/05/13 11:21:56;;;;;;;6.68;3.10;;;;;;;18.70;53.04;96387.16;5034434;28;20025;-30
2023/05/13 11:24:23;;;;;;;5.38;2.50;;;;;;;18.59;53.60;96387.00;5036130;28;20377;-31
2023/05/13 11:26:51;;;;;;;7.07;2.75;;;;;;;18.47;54.11;96382.59;5036198;28;20029;-30
2023/05/13 11:29:31;;;;;;;4.45;2.17;;;;;;;18.49;54.10;96391.09;5036111;28;20022;-29
2023/05/13 11:31:57;;;;;;;16.20;6.72;;;;;;;18.63;53.78;96393.06;5047743;28;20083;-30
2023/05/13 11:34:24;;;;;;;8.73;4.32;;;;;;;18.64;54.08;96408.31;5047216;28;20075;-29